METAR stanice u blizini

 

LYBE - Beograd / Surčin, Srbija
Ažurirano: 21/10/2018 14:00
Partly Cloudy
Partly Cloudy
 Pravac vetra Z
Vetar: Z 17 km/h
Temperatura: 12°C
Tačka rose: 5°C
Vlažnost: 63%
Pritisak: 1023 hPa
Oblaci: Partly Cloudy
Vidljivost: 10 km
Cloud details: Partly Cloudy 1219 m
2018/10/21 12:00 LYBE 211200Z 28009KT 9999 SCT040 12/05 Q1023 NOSIG
LYBT - Beograd / Batajnica, Srbija
Ažurirano: 21/10/2018 14:00
Vedro
Vedro
 Pravac vetra SZ
Vetar: SZ 15 km/h
Temperatura: 11°C
Tačka rose: 4°C
Vlažnost: 62%
Pritisak: 1023 hPa
Pregled: Vedro
Vidljivost: greater than 10 km
2018/10/21 12:00 LYBT 211200Z 31008KT 280V350 CAVOK 11/04 Q1023 NOSIG
LYVR - Vršac, Srbija
Ažurirano: 21/10/2018 14:00
Oblačno
Oblačno
 Pravac vetra ZSZ
Vetar: ZSZ 9 km/h
Temperatura: 11°C
Tačka rose: 6°C
Vlažnost: 72%
Pritisak: 1022 hPa
Oblaci: Oblačno
Vidljivost: 10 km
Cloud details: Oblačno 701 m
2018/10/21 12:00 LYVR 211200Z 29005KT 260V320 9999 OVC023 11/06 Q1022 NOSIG
 
LYKV - Lađevci, Srbija
Ažurirano: 21/10/2018 14:00
Mostly Cloudy
Mostly Cloudy
 Pravac vetra SSZ
Vetar: SSZ 9 km/h
Temperatura: 13°C
Tačka rose: 7°C
Vlažnost: 67%
Pritisak: 1022 hPa
Oblaci: Mostly Cloudy
Vidljivost: 10 km
Cloud details: Few Clouds 914 m
Mostly Cloudy 1433 m
2018/10/21 12:00 LYKV 211200Z 33005KT 300V360 9999 FEW030 BKN047 13/07 Q1022 NOSIG
LYNI - Niš, Srbija
Ažurirano: 21/10/2018 14:00
Slaba kiša, Oblačno
Slaba kiša, Oblačno
 Pravac vetra SSZ
Vetar: SSZ 13 km/h
Temperatura: 11°C
Tačka rose: 7°C
Vlažnost: 77%
Pritisak: 1021 hPa
Pregled: Light Rain
Oblaci: Oblačno
Vidljivost: 10 km
Cloud details: Few Clouds 396 m
Partly Cloudy 1006 m
Oblačno 2042 m
2018/10/21 12:00 LYNI 211200Z 33007KT 300V020 9999 -RA FEW013 SCT033 OVC067 11/07 Q1021 NOSIG
BKPR - Priština, Srbija
Ažurirano: 21/10/2018 14:30
Mostly Cloudy
Mostly Cloudy
 Pravac vetra ISI
Vetar: ISI 11 km/h
Temperatura: 11°C
Tačka rose: 5°C
Vlažnost: 67%
Pritisak: 1021 hPa
Oblaci: Mostly Cloudy
Vidljivost: 8 km
Cloud details: Partly Cloudy 914 m
Mostly Cloudy 1676 m
2018/10/21 12:30 BKPR 211230Z 07006KT 8000 SCT030 BKN055 11/05 Q1021 NOSIG
 
LHPP - Pecs / Pogany, Hungary
Ažurirano: 21/10/2018 13:45
Mostly Cloudy
Mostly Cloudy
 Pravac vetra SSI
Vetar: SSI 19 km/h
Temperatura: 10°C
Osećaj hladnoće: 7°C
Tačka rose: 3°C
Vlažnost: 62%
Pritisak: 1024 hPa
Oblaci: Mostly Cloudy
Vidljivost: 10 km
Cloud details: Mostly Cloudy 1311 m
2018/10/21 11:45 LHPP 211145Z 02010KT 9999 BKN043 10/03 Q1024
LHUD - Szeged, Hungary
Ažurirano: 21/10/2018 13:45
Oblačno
Oblačno
 Pravac vetra S
Vetar: S 19 km/h
Temperatura: 10°C
Osećaj hladnoće: 7°C
Tačka rose: 6°C
Vlažnost: 76%
Pritisak: 1023 hPa
Oblaci: Oblačno
Vidljivost: 10 km
Cloud details: Oblačno 610 m
2018/10/21 11:45 LHUD 211145Z 36010KT 9999 OVC020 10/06 Q1023
LRTR - Timisoara, Romania
Ažurirano: 21/10/2018 14:00
Mostly Cloudy
Mostly Cloudy
 Pravac vetra SZ
Vetar: SZ 15 km/h
Temperatura: 11°C
Tačka rose: 7°C
Vlažnost: 77%
Pritisak: 1021 hPa
Oblaci: Mostly Cloudy
Vidljivost: 10 km
Cloud details: Mostly Cloudy 549 m
2018/10/21 12:00 LRTR 211200Z 31008KT 9999 BKN018 11/07 Q1021
 
LRCV - Craiova, Romania
Ažurirano: 21/10/2018 14:00
Mist, Oblačno
Mist, Oblačno
 Pravac vetra SI
Vetar: SI 7 km/h
Temperatura: 13°C
Tačka rose: 11°C
Vlažnost: 88%
Pritisak: 1019 hPa
Pregled: Mist
Oblaci: Oblačno
Vidljivost: 3 km
Cloud details: Oblačno 183 m
2018/10/21 12:00 LRCV 211200Z 04004KT 360V060 3000 BR OVC006 13/11 Q1019
LBSF - Sofia, Bulgaria
Ažurirano: 21/10/2018 14:00
Partly Cloudy
Partly Cloudy
 Pravac vetra ZSZ
Vetar: ZSZ 20 km/h
Temperatura: 14°C
Tačka rose: 8°C
Vlažnost: 67%
Pritisak: 1019 hPa
Oblaci: Partly Cloudy
Vidljivost: 10 km
Cloud details: Few Clouds 823 m
Partly Cloudy 1097 m
2018/10/21 12:00 LBSF 211200Z 29011KT 260V320 9999 FEW027 SCT036 14/08 Q1019 NOSIG
LWSK - Skoplje, Makedonija
Ažurirano: 21/10/2018 14:00
Oblačno
Oblačno
 Pravac vetra SZ
Vetar: SZ 6 km/h
Temperatura: 13°C
Tačka rose: 10°C
Vlažnost: 82%
Pritisak: 1020 hPa
Oblaci: Oblačno
Vidljivost: 10 km
Cloud details: Oblačno 1311 m
2018/10/21 12:00 LWSK 211200Z 32003KT 9999 OVC043 13/10 Q1020 NOSIG
 
LYPG - Podgorica, Crna Gora
Ažurirano: 21/10/2018 14:00
Mostly Cloudy
Mostly Cloudy
 Pravac vetra S
Vetar: S 20 km/h
Temperatura: 20°C
Tačka rose: 3°C
Vlažnost: 33%
Pritisak: 1016 hPa
Oblaci: Mostly Cloudy
Vidljivost: 10 km
Cloud details: Few Clouds 1219 m
Mostly Cloudy 3048 m
2018/10/21 12:00 LYPG 211200Z 01011KT 9999 FEW040 BKN100 20/03 Q1016 NOSIG
LQSA - Sarajevo, Bosna i Hercegovina
Ažurirano: 21/10/2018 14:00
Slaba kiša, Pretežno oblačno
Slaba kiša, Pretežno oblačno
 Pravac vetra SZ
Vetar: SZ 11 km/h
Temperatura: 10°C
Osećaj hladnoće: 8°C
Tačka rose: 6°C
Vlažnost: 76%
Pritisak: 1022 hPa
Pregled: Light Rain
Oblaci: Mostly Cloudy
Vidljivost: 10 km
Cloud details: Few Clouds 762 m
Mostly Cloudy 1676 m
2018/10/21 12:00 LQSA 211200Z 32006KT 290V020 9999 -RA FEW025 BKN055 10/06 Q1022 NOSIG
LDOS - Osijek, Hrvatksa
Ažurirano: 21/10/2018 14:00
Mostly Cloudy
Mostly Cloudy
 Pravac vetra S
Vetar: S 19 km/h
Temperatura: 11°C
Tačka rose: 5°C
Vlažnost: 67%
Pritisak: 1023 hPa
Oblaci: Mostly Cloudy
Vidljivost: 10 km
Cloud details: Mostly Cloudy 1067 m
2018/10/21 12:00 LDOS 211200Z 36010KT 330V040 9999 BKN035 11/05 Q1023